Galena, Nevada Weather observations

Data are for 10 minute period ending at time listed.
 Day   Time    Ave.   Ave.  Ave.  Vector   Max.   Total    Solar   
  of    of     Air    Rel.  Wind   Wind    Wind  Precip.   Rad.    
Year   Day     Temp.  Hum.  Speed  Dir.    Gust                    
2014   (PST)    F      %     mph   deg.    mph     in.     W/m2    
------------------------------------------------------------------- 
 329   13:00   57.0    25    3.0   141      8.0    5.03     504  
 329   14:00   63.0    21    3.0   130      8.0    5.03     441  
 329   15:00   62.0    21    5.0   126     10.0    5.03     328  
 329   16:00   59.0    23    3.0   212      7.0    5.03     170  
 329   17:00   52.0    33    3.0   276      7.0    5.03       9  
 329   18:00   48.0    35    4.0   261      6.0    5.03       0  
 329   19:00   50.0    35    3.0   310      9.0    5.03       0  
 329   20:00   45.0    47    3.0   332      7.0    5.03       0  
 329   21:00   47.0    40    3.0    35      9.0    5.03       0  
 329   22:00   48.0    40    3.0   256      5.0    5.03       0  
 329   23:00   42.0    54    2.0   316      5.0    5.03       0  
 330    0:00   46.0    43    3.0   235      6.0    5.03       0  
 330    1:00   46.0    44    4.0   250      6.0    5.03       0  
 330    2:00   43.0    46    1.0   287      8.0    5.03       0  
 330    3:00   42.0    49    3.0   282      7.0    5.03       0  
 330    4:00   40.0    52    2.0   278      7.0    5.03       0  
 330    5:00   43.0    46    2.0   238      7.0    5.03       0  
 330    6:00   41.0    46    3.0   250      7.0    5.03       0  
 330    7:00   42.0    44    3.0   196      6.0    5.03       0  
 330    8:00   51.0    34    4.0   201      8.0    5.03      47  
 330    9:00   59.0    26    3.0   194      8.0    5.03     204  
 330   10:00   59.0    26    6.0   167     10.0    5.03     340  
 330   11:00   62.0    24    5.0   163     10.0    5.03     451  
 330   12:00   67.0    19    6.0   157     10.0    5.03     512  

Return to Galena, Nevada graphs page.


Western Regional Climate Center,wrcc@dri.edu